createdAt,value
2023-05-12T00:00:02.592Z,951.17
2023-05-12T00:00:13.586Z,951.17
2023-05-12T00:00:24.587Z,951.16
2023-05-12T00:00:35.578Z,951.16
2023-05-12T00:00:46.580Z,951.16
2023-05-12T00:00:57.584Z,951.15
2023-05-12T00:01:08.568Z,951.15
2023-05-12T00:01:19.579Z,951.15
2023-05-12T00:01:30.568Z,951.15
2023-05-12T00:01:41.572Z,951.14
2023-05-12T00:01:52.567Z,951.14
2023-05-12T00:02:03.561Z,951.13
2023-05-12T00:02:14.629Z,951.13
2023-05-12T00:02:25.662Z,951.13
2023-05-12T00:02:36.740Z,951.13
2023-05-12T00:02:47.670Z,951.13
2023-05-12T00:02:58.694Z,951.13
2023-05-12T00:03:10.660Z,951.13
2023-05-12T00:03:21.675Z,951.13
2023-05-12T00:03:32.701Z,951.14
2023-05-12T00:03:44.870Z,951.14
2023-05-12T00:03:56.737Z,951.14
2023-05-12T00:04:08.752Z,951.14
2023-05-12T00:04:19.653Z,951.13
2023-05-12T00:04:31.722Z,951.13
2023-05-12T00:04:43.664Z,951.13
2023-05-12T00:04:55.597Z,951.13
2023-05-12T00:05:06.592Z,951.13
2023-05-12T00:05:17.596Z,951.13
2023-05-12T00:05:28.581Z,951.13
2023-05-12T00:05:39.595Z,951.12
2023-05-12T00:05:50.609Z,951.12
2023-05-12T00:06:01.594Z,951.11
2023-05-12T00:06:12.669Z,951.11
2023-05-12T00:06:24.621Z,951.11
2023-05-12T00:06:36.577Z,951.10
2023-05-12T00:06:47.580Z,951.10
2023-05-12T00:06:58.572Z,951.09
2023-05-12T00:07:10.578Z,951.09
2023-05-12T00:07:21.606Z,951.09
2023-05-12T00:07:32.592Z,951.09
2023-05-12T00:07:43.571Z,951.09
2023-05-12T00:07:54.592Z,951.09
2023-05-12T00:08:05.608Z,951.09
2023-05-12T00:08:16.605Z,951.09
2023-05-12T00:08:27.611Z,951.09
2023-05-12T00:08:38.596Z,951.09
2023-05-12T00:08:49.595Z,951.08
2023-05-12T00:09:00.596Z,951.09
2023-05-12T00:09:11.609Z,951.09
2023-05-12T00:09:23.577Z,951.08
2023-05-12T00:09:34.582Z,951.08
2023-05-12T00:09:45.586Z,951.08
2023-05-12T00:09:56.605Z,951.07
2023-05-12T00:10:07.616Z,951.07
2023-05-12T00:10:19.732Z,951.07
2023-05-12T00:10:31.583Z,951.07
2023-05-12T00:10:42.571Z,951.06
2023-05-12T00:10:53.592Z,951.06
2023-05-12T00:11:04.607Z,951.06
2023-05-12T00:11:16.615Z,951.06
2023-05-12T00:11:27.604Z,951.06
2023-05-12T00:11:38.605Z,951.05
2023-05-12T00:11:49.598Z,951.06
2023-05-12T00:12:00.591Z,951.06
2023-05-12T00:12:11.589Z,951.06
2023-05-12T00:12:22.587Z,951.06
2023-05-12T00:12:33.592Z,951.06
2023-05-12T00:12:44.578Z,951.06
2023-05-12T00:12:55.582Z,951.06
2023-05-12T00:13:06.602Z,951.06
2023-05-12T00:13:17.628Z,951.07
2023-05-12T00:13:29.608Z,951.07
2023-05-12T00:13:41.598Z,951.08
2023-05-12T00:13:52.610Z,951.08
2023-05-12T00:14:03.595Z,951.08
2023-05-12T00:14:14.595Z,951.09
2023-05-12T00:14:26.581Z,951.10
2023-05-12T00:14:37.587Z,951.10
2023-05-12T00:14:48.578Z,951.10
2023-05-12T00:14:59.566Z,951.11
2023-05-12T00:15:10.590Z,951.11
2023-05-12T00:15:21.592Z,951.11
2023-05-12T00:15:32.588Z,951.12
2023-05-12T00:15:43.586Z,951.12
2023-05-12T00:15:54.627Z,951.12
2023-05-12T00:16:06.596Z,951.12
2023-05-12T00:16:18.602Z,951.12
2023-05-12T00:16:29.668Z,951.12
2023-05-12T00:16:40.663Z,951.12
2023-05-12T00:16:52.849Z,951.12
2023-05-12T00:17:04.622Z,951.11
2023-05-12T00:17:16.578Z,951.11
2023-05-12T00:17:27.649Z,951.11
2023-05-12T00:17:39.736Z,951.10
2023-05-12T00:17:51.680Z,951.10
2023-05-12T00:18:03.583Z,951.10
2023-05-12T00:18:14.595Z,951.09
2023-05-12T00:18:25.615Z,951.09
2023-05-12T00:18:37.725Z,951.08
2023-05-12T00:18:49.639Z,951.08
2023-05-12T00:19:01.705Z,951.08
2023-05-12T00:19:13.604Z,951.07
2023-05-12T00:19:24.601Z,951.07
2023-05-12T00:19:35.599Z,951.07
2023-05-12T00:19:47.574Z,951.07
2023-05-12T00:19:59.584Z,951.06
2023-05-12T00:20:10.577Z,951.06
2023-05-12T00:20:21.935Z,951.06
2023-05-12T00:20:32.589Z,951.06
2023-05-12T00:20:43.584Z,951.05
2023-05-12T00:20:54.569Z,951.05
2023-05-12T00:21:05.567Z,951.05
2023-05-12T00:21:16.550Z,951.05
2023-05-12T00:21:27.645Z,951.04
2023-05-12T00:21:39.602Z,951.04
2023-05-12T00:21:50.596Z,951.04
2023-05-12T00:22:01.593Z,951.03
2023-05-12T00:22:12.592Z,951.03
2023-05-12T00:22:23.591Z,951.03
2023-05-12T00:22:34.587Z,951.02
2023-05-12T00:22:45.568Z,951.02
2023-05-12T00:22:56.562Z,951.02
2023-05-12T00:23:07.674Z,951.02
2023-05-12T00:23:19.620Z,951.01
2023-05-12T00:23:30.606Z,951.00
2023-05-12T00:23:41.593Z,951.00
2023-05-12T00:23:52.593Z,951.00
2023-05-12T00:24:03.586Z,950.99
2023-05-12T00:24:14.588Z,950.99
2023-05-12T00:24:25.587Z,950.99
2023-05-12T00:24:36.563Z,950.99
2023-05-12T00:24:47.592Z,950.99
2023-05-12T00:24:58.580Z,950.99
2023-05-12T00:25:09.590Z,951.00
2023-05-12T00:25:20.578Z,951.00
2023-05-12T00:25:31.592Z,951.01
2023-05-12T00:25:42.587Z,951.01
2023-05-12T00:25:53.588Z,951.01
2023-05-12T00:26:04.611Z,951.02
2023-05-12T00:26:15.612Z,951.02
2023-05-12T00:26:27.594Z,951.03
2023-05-12T00:26:38.598Z,951.03
2023-05-12T00:26:49.605Z,951.03
2023-05-12T00:27:01.570Z,951.04
2023-05-12T00:27:12.573Z,951.04
2023-05-12T00:27:23.589Z,951.04
2023-05-12T00:27:34.612Z,951.05
2023-05-12T00:27:45.593Z,951.05
2023-05-12T00:27:57.600Z,951.05
2023-05-12T00:28:09.594Z,951.05
2023-05-12T00:28:20.590Z,951.06
2023-05-12T00:28:31.613Z,951.06
2023-05-12T00:28:42.601Z,951.06
2023-05-12T00:28:53.611Z,951.06
2023-05-12T00:29:05.576Z,951.06
2023-05-12T00:29:16.573Z,951.06
2023-05-12T00:29:27.606Z,951.06
2023-05-12T00:29:38.596Z,951.06
2023-05-12T00:29:49.592Z,951.06
2023-05-12T00:30:00.616Z,951.06
2023-05-12T00:30:12.594Z,951.06
2023-05-12T00:30:23.590Z,951.06
2023-05-12T00:30:34.597Z,951.06
2023-05-12T00:30:46.593Z,951.06
2023-05-12T00:30:57.586Z,951.06
2023-05-12T00:31:08.618Z,951.06
2023-05-12T00:31:20.644Z,951.06
2023-05-12T00:31:32.686Z,951.05
2023-05-12T00:31:44.643Z,951.05
2023-05-12T00:31:55.596Z,951.05
2023-05-12T00:32:06.625Z,951.05
2023-05-12T00:32:18.592Z,951.05
2023-05-12T00:32:29.651Z,951.05
2023-05-12T00:32:40.627Z,951.06
2023-05-12T00:32:51.619Z,951.06
2023-05-12T00:33:02.613Z,951.06
2023-05-12T00:33:14.584Z,951.06
2023-05-12T00:33:25.588Z,951.06
2023-05-12T00:33:36.584Z,951.06
2023-05-12T00:33:47.567Z,951.06
2023-05-12T00:33:58.573Z,951.07
2023-05-12T00:34:09.610Z,951.07
2023-05-12T00:34:20.607Z,951.07
2023-05-12T00:34:31.602Z,951.07
2023-05-12T00:34:43.578Z,951.07
2023-05-12T00:34:54.607Z,951.07
2023-05-12T00:35:05.604Z,951.07
2023-05-12T00:35:16.602Z,951.07
2023-05-12T00:35:27.605Z,951.08
2023-05-12T00:35:38.593Z,951.08
2023-05-12T00:35:49.572Z,951.09
2023-05-12T00:36:00.599Z,951.09
2023-05-12T00:36:11.622Z,951.09
2023-05-12T00:36:23.593Z,951.09
2023-05-12T00:36:34.586Z,951.09
2023-05-12T00:36:45.586Z,951.10
2023-05-12T00:36:56.583Z,951.10
2023-05-12T00:37:07.596Z,951.10
2023-05-12T00:37:19.604Z,951.10
2023-05-12T00:37:30.607Z,951.10
2023-05-12T00:37:41.595Z,951.10
2023-05-12T00:37:52.595Z,951.10
2023-05-12T00:38:03.606Z,951.10
2023-05-12T00:38:14.620Z,951.10
2023-05-12T00:38:26.632Z,951.10
2023-05-12T00:38:38.602Z,951.10
2023-05-12T00:38:49.592Z,951.10
2023-05-12T00:39:00.588Z,951.10
2023-05-12T00:39:11.595Z,951.10
2023-05-12T00:39:22.584Z,951.10
2023-05-12T00:39:33.587Z,951.11
2023-05-12T00:39:44.586Z,951.10
2023-05-12T00:39:55.587Z,951.11
2023-05-12T00:40:06.602Z,951.10
2023-05-12T00:40:17.834Z,951.11
2023-05-12T00:40:28.567Z,951.11
2023-05-12T00:40:39.589Z,951.11
2023-05-12T00:40:50.585Z,951.10
2023-05-12T00:41:01.584Z,951.10
2023-05-12T00:41:12.582Z,951.10
2023-05-12T00:41:23.607Z,951.10
2023-05-12T00:41:34.598Z,951.10
2023-05-12T00:41:45.603Z,951.10
2023-05-12T00:41:56.605Z,951.10
2023-05-12T00:42:08.581Z,951.10
2023-05-12T00:42:19.578Z,951.11
2023-05-12T00:42:30.576Z,951.11
2023-05-12T00:42:41.584Z,951.11
2023-05-12T00:42:52.579Z,951.11
2023-05-12T00:43:04.173Z,951.12
2023-05-12T00:43:15.586Z,951.12
2023-05-12T00:43:26.622Z,951.13
2023-05-12T00:43:38.580Z,951.13
2023-05-12T00:43:49.597Z,951.12
2023-05-12T00:44:00.593Z,951.12
2023-05-12T00:44:11.591Z,951.12
2023-05-12T00:44:22.586Z,951.12
2023-05-12T00:44:33.577Z,951.12
2023-05-12T00:44:44.576Z,951.12
2023-05-12T00:44:55.558Z,951.11
2023-05-12T00:45:06.580Z,951.10
2023-05-12T00:45:17.572Z,951.10
2023-05-12T00:45:28.571Z,951.09
2023-05-12T00:45:39.612Z,951.09
2023-05-12T00:45:50.597Z,951.08
2023-05-12T00:46:01.712Z,951.07
2023-05-12T00:46:12.594Z,951.07
2023-05-12T00:46:23.655Z,951.07
2023-05-12T00:46:35.577Z,951.06
2023-05-12T00:46:46.570Z,951.06
2023-05-12T00:46:57.555Z,951.06
2023-05-12T00:47:08.552Z,951.06
2023-05-12T00:47:19.652Z,951.06
2023-05-12T00:47:31.642Z,951.06
2023-05-12T00:47:43.668Z,951.07
2023-05-12T00:47:55.678Z,951.07
2023-05-12T00:48:07.730Z,951.07
2023-05-12T00:48:18.559Z,951.07
2023-05-12T00:48:29.638Z,951.06
2023-05-12T00:48:41.604Z,951.06
2023-05-12T00:48:52.594Z,951.06
2023-05-12T00:49:03.599Z,951.06
2023-05-12T00:49:14.596Z,951.06
2023-05-12T00:49:25.604Z,951.05
2023-05-12T00:49:36.608Z,951.05
2023-05-12T00:49:48.605Z,951.05
2023-05-12T00:50:00.596Z,951.05
2023-05-12T00:50:11.576Z,951.04
2023-05-12T00:50:22.712Z,951.04
2023-05-12T00:50:33.596Z,951.03
2023-05-12T00:50:44.594Z,951.03
2023-05-12T00:50:55.607Z,951.02
2023-05-12T00:51:06.574Z,951.02
2023-05-12T00:51:17.572Z,951.02
2023-05-12T00:51:28.570Z,951.02
2023-05-12T00:51:39.613Z,951.02
2023-05-12T00:51:50.595Z,951.02
2023-05-12T00:52:01.604Z,951.02
2023-05-12T00:52:12.607Z,951.02
2023-05-12T00:52:24.578Z,951.02
2023-05-12T00:52:35.598Z,951.02
2023-05-12T00:52:46.608Z,951.02
2023-05-12T00:52:57.604Z,951.02
2023-05-12T00:53:08.599Z,951.02
2023-05-12T00:53:19.610Z,951.03
2023-05-12T00:53:37.861Z,951.03
2023-05-12T00:53:49.956Z,951.03
2023-05-12T00:53:55.620Z,951.03
2023-05-12T00:54:06.615Z,951.03
2023-05-12T00:54:17.611Z,951.03
2023-05-12T00:54:28.600Z,951.04
2023-05-12T00:54:39.594Z,951.04
2023-05-12T00:54:50.596Z,951.04
2023-05-12T00:55:01.571Z,951.04
2023-05-12T00:55:12.580Z,951.04
2023-05-12T00:55:23.575Z,951.05
2023-05-12T00:55:34.580Z,951.05
2023-05-12T00:55:45.558Z,951.05
2023-05-12T00:55:56.548Z,951.05
2023-05-12T00:56:07.634Z,951.05
2023-05-12T00:56:19.596Z,951.05
2023-05-12T00:56:30.586Z,951.05
2023-05-12T00:56:41.579Z,951.05
2023-05-12T00:56:52.572Z,951.06
2023-05-12T00:57:03.565Z,951.06
2023-05-12T00:57:14.562Z,951.06
2023-05-12T00:57:25.569Z,951.07
2023-05-12T00:57:36.561Z,951.07
2023-05-12T00:57:47.568Z,951.07
2023-05-12T00:57:58.610Z,951.08
2023-05-12T00:58:09.593Z,951.08
2023-05-12T00:58:20.570Z,951.08
2023-05-12T00:58:31.554Z,951.08
2023-05-12T00:58:42.651Z,951.08
2023-05-12T00:58:54.603Z,951.09
2023-05-12T00:59:05.584Z,951.09
2023-05-12T00:59:16.594Z,951.09
2023-05-12T00:59:28.576Z,951.09
2023-05-12T00:59:39.577Z,951.10
2023-05-12T00:59:50.571Z,951.10
2023-05-12T01:00:01.577Z,951.10
2023-05-12T01:00:12.572Z,951.11
2023-05-12T01:00:23.574Z,951.11
2023-05-12T01:00:34.601Z,951.11
2023-05-12T01:00:45.597Z,951.11
2023-05-12T01:00:56.620Z,951.11
2023-05-12T01:01:07.620Z,951.10
2023-05-12T01:01:19.633Z,951.10
2023-05-12T01:01:31.663Z,951.10
2023-05-12T01:01:43.638Z,951.10
2023-05-12T01:01:55.606Z,951.10
2023-05-12T01:02:07.655Z,951.10
2023-05-12T01:02:19.668Z,951.10
2023-05-12T01:02:30.659Z,951.09
2023-05-12T01:02:41.775Z,951.09
2023-05-12T01:02:53.739Z,951.09
2023-05-12T01:03:04.705Z,951.09
2023-05-12T01:03:15.656Z,951.08
2023-05-12T01:03:27.679Z,951.08
2023-05-12T01:03:39.643Z,951.08
2023-05-12T01:03:50.639Z,951.08
2023-05-12T01:04:01.588Z,951.09
2023-05-12T01:04:12.589Z,951.08
2023-05-12T01:04:23.607Z,951.08
2023-05-12T01:04:34.590Z,951.08
2023-05-12T01:04:45.600Z,951.07
2023-05-12T01:04:56.609Z,951.07
2023-05-12T01:05:07.633Z,951.06
2023-05-12T01:05:19.599Z,951.05
2023-05-12T01:05:30.591Z,951.05
2023-05-12T01:05:41.608Z,951.04
2023-05-12T01:05:53.606Z,951.03
2023-05-12T01:06:04.608Z,951.02
2023-05-12T01:06:15.603Z,951.02
2023-05-12T01:06:26.598Z,951.01
2023-05-12T01:06:37.588Z,951.01
2023-05-12T01:06:48.621Z,951.00
2023-05-12T01:07:00.584Z,950.99
2023-05-12T01:07:11.592Z,950.99
2023-05-12T01:07:22.603Z,950.98
2023-05-12T01:07:34.595Z,950.98
2023-05-12T01:07:45.577Z,950.98
2023-05-12T01:07:56.703Z,950.98
2023-05-12T01:08:07.597Z,950.98
2023-05-12T01:08:18.607Z,950.98
2023-05-12T01:08:29.601Z,950.98
2023-05-12T01:08:40.600Z,950.98
2023-05-12T01:08:51.599Z,950.99
2023-05-12T01:09:02.619Z,950.99
2023-05-12T01:09:14.582Z,950.99
2023-05-12T01:09:25.594Z,951.00
2023-05-12T01:09:36.585Z,951.00
2023-05-12T01:09:47.583Z,951.00
2023-05-12T01:09:58.580Z,951.00
2023-05-12T01:10:09.589Z,951.00
2023-05-12T01:10:20.810Z,951.00
2023-05-12T01:10:32.588Z,951.00
2023-05-12T01:10:43.586Z,951.00
2023-05-12T01:10:54.587Z,951.00
2023-05-12T01:11:05.587Z,951.00
2023-05-12T01:11:16.585Z,951.01
2023-05-12T01:11:27.593Z,951.01
2023-05-12T01:11:38.584Z,951.01
2023-05-12T01:11:49.614Z,951.01
2023-05-12T01:12:00.610Z,951.02
2023-05-12T01:12:11.606Z,951.02
2023-05-12T01:12:22.597Z,951.02
2023-05-12T01:12:33.632Z,951.03
2023-05-12T01:12:45.605Z,951.04
2023-05-12T01:12:56.712Z,951.04
2023-05-12T01:13:08.568Z,951.04
2023-05-12T01:13:19.557Z,951.04
2023-05-12T01:13:30.581Z,951.05
2023-05-12T01:13:41.563Z,951.05
2023-05-12T01:13:52.575Z,951.05
2023-05-12T01:14:04.338Z,951.05
2023-05-12T01:14:14.581Z,951.05
2023-05-12T01:14:25.575Z,951.05
2023-05-12T01:14:36.579Z,951.05
2023-05-12T01:14:47.570Z,951.05
2023-05-12T01:14:58.583Z,951.05
2023-05-12T01:15:09.561Z,951.05
2023-05-12T01:15:20.569Z,951.05
2023-05-12T01:15:31.561Z,951.05
2023-05-12T01:15:42.560Z,951.05
2023-05-12T01:15:53.628Z,951.04
2023-05-12T01:16:05.579Z,951.04
2023-05-12T01:16:16.570Z,951.04
2023-05-12T01:16:27.563Z,951.03
2023-05-12T01:16:38.568Z,951.03
2023-05-12T01:16:49.607Z,951.03
2023-05-12T01:17:00.676Z,951.03
2023-05-12T01:17:12.590Z,951.02
2023-05-12T01:17:24.655Z,951.02
2023-05-12T01:17:35.664Z,951.02
2023-05-12T01:17:46.649Z,951.02
2023-05-12T01:17:57.660Z,951.02
2023-05-12T01:18:09.617Z,951.02
2023-05-12T01:18:21.694Z,951.02
2023-05-12T01:18:32.614Z,951.03
2023-05-12T01:18:43.655Z,951.03
2023-05-12T01:18:54.638Z,951.03
2023-05-12T01:19:05.600Z,951.03
2023-05-12T01:19:16.671Z,951.03
2023-05-12T01:19:28.618Z,951.03
2023-05-12T01:19:39.612Z,951.03
2023-05-12T01:19:51.577Z,951.03
2023-05-12T01:20:02.601Z,951.03
2023-05-12T01:20:13.597Z,951.03
2023-05-12T01:20:24.600Z,951.02
2023-05-12T01:20:35.590Z,951.02
2023-05-12T01:20:46.581Z,951.02
2023-05-12T01:20:57.581Z,951.01
2023-05-12T01:21:08.573Z,951.01
2023-05-12T01:21:19.616Z,951.01
2023-05-12T01:21:31.603Z,951.01
2023-05-12T01:21:42.601Z,951.01
2023-05-12T01:21:53.607Z,951.01
2023-05-12T01:22:04.610Z,951.01
2023-05-12T01:22:15.612Z,951.01
2023-05-12T01:22:27.580Z,951.01
2023-05-12T01:22:38.574Z,951.01
2023-05-12T01:22:49.559Z,951.02
2023-05-12T01:23:00.601Z,951.01
2023-05-12T01:23:11.591Z,951.02
2023-05-12T01:23:22.620Z,951.02
2023-05-12T01:23:34.597Z,951.02
2023-05-12T01:23:45.587Z,951.02
2023-05-12T01:23:56.604Z,951.02
2023-05-12T01:24:07.606Z,951.02
2023-05-12T01:24:19.602Z,951.02
2023-05-12T01:24:30.579Z,951.02
2023-05-12T01:24:41.580Z,951.02
2023-05-12T01:24:52.602Z,951.02
2023-05-12T01:25:03.610Z,951.01
2023-05-12T01:25:14.611Z,951.02
2023-05-12T01:25:25.624Z,951.01
2023-05-12T01:25:37.630Z,951.01
2023-05-12T01:25:49.600Z,951.01
2023-05-12T01:26:01.585Z,951.01
2023-05-12T01:26:12.563Z,951.01
2023-05-12T01:26:23.565Z,951.01
2023-05-12T01:26:34.609Z,951.01
2023-05-12T01:26:45.604Z,951.01
2023-05-12T01:26:56.600Z,951.01
2023-05-12T01:27:07.613Z,951.01
2023-05-12T01:27:18.614Z,951.01
2023-05-12T01:27:29.594Z,951.01
2023-05-12T01:27:40.596Z,951.01
2023-05-12T01:27:51.578Z,951.01
2023-05-12T01:28:02.575Z,951.00
2023-05-12T01:28:13.577Z,951.01
2023-05-12T01:28:24.585Z,951.01
2023-05-12T01:28:35.574Z,951.00
2023-05-12T01:28:46.573Z,951.00
2023-05-12T01:28:57.567Z,951.00
2023-05-12T01:29:08.612Z,951.00
2023-05-12T01:29:19.600Z,951.00
2023-05-12T01:29:30.606Z,950.99
2023-05-12T01:29:42.582Z,950.99
2023-05-12T01:29:53.572Z,950.99
2023-05-12T01:30:04.573Z,950.99
2023-05-12T01:30:15.593Z,950.99
2023-05-12T01:30:26.610Z,950.99
2023-05-12T01:30:38.591Z,950.99
2023-05-12T01:30:49.634Z,950.99
2023-05-12T01:31:01.689Z,950.99
2023-05-12T01:31:12.761Z,951.00
2023-05-12T01:31:24.651Z,950.99
2023-05-12T01:31:36.689Z,951.00
2023-05-12T01:31:48.684Z,951.00
2023-05-12T01:32:00.595Z,951.00
2023-05-12T01:32:11.572Z,951.01
2023-05-12T01:32:22.562Z,951.01
2023-05-12T01:32:33.675Z,951.01
2023-05-12T01:32:44.620Z,951.02
2023-05-12T01:32:57.258Z,951.02
2023-05-12T01:33:07.597Z,951.02
2023-05-12T01:33:18.596Z,951.02
2023-05-12T01:33:29.600Z,951.02
2023-05-12T01:33:40.595Z,951.03
2023-05-12T01:33:51.582Z,951.03
2023-05-12T01:34:02.584Z,951.03
2023-05-12T01:34:13.589Z,951.03
2023-05-12T01:34:24.579Z,951.03
2023-05-12T01:34:35.571Z,951.03
2023-05-12T01:34:46.558Z,951.03
2023-05-12T01:34:57.570Z,951.03
2023-05-12T01:35:08.575Z,951.02
2023-05-12T01:35:19.585Z,951.02
2023-05-12T01:35:30.577Z,951.02
2023-05-12T01:35:41.588Z,951.02
2023-05-12T01:35:52.584Z,951.02
2023-05-12T01:36:03.590Z,951.02
2023-05-12T01:36:14.581Z,951.02
2023-05-12T01:36:25.578Z,951.02
2023-05-12T01:36:36.603Z,951.03
2023-05-12T01:36:47.599Z,951.03
2023-05-12T01:36:58.585Z,951.03
2023-05-12T01:37:09.589Z,951.03
2023-05-12T01:37:20.606Z,951.04
2023-05-12T01:37:32.592Z,951.04
2023-05-12T01:37:43.585Z,951.04
2023-05-12T01:37:54.582Z,951.04
2023-05-12T01:38:05.591Z,951.04
2023-05-12T01:38:16.613Z,951.04
2023-05-12T01:38:27.614Z,951.05
2023-05-12T01:38:39.609Z,951.05
2023-05-12T01:38:50.594Z,951.05
2023-05-12T01:39:01.597Z,951.05
2023-05-12T01:39:12.600Z,951.05
2023-05-12T01:39:23.594Z,951.04
2023-05-12T01:39:34.594Z,951.05
2023-05-12T01:39:45.596Z,951.04
2023-05-12T01:39:56.588Z,951.04
2023-05-12T01:40:07.575Z,951.04
2023-05-12T01:40:18.825Z,951.04
2023-05-12T01:40:29.598Z,951.04
2023-05-12T01:40:40.610Z,951.04
2023-05-12T01:40:52.575Z,951.04
2023-05-12T01:41:03.572Z,951.04
2023-05-12T01:41:14.623Z,951.04
2023-05-12T01:41:26.578Z,951.04
2023-05-12T01:41:37.595Z,951.04
2023-05-12T01:41:48.603Z,951.04
2023-05-12T01:41:59.594Z,951.03
2023-05-12T01:42:10.599Z,951.03
2023-05-12T01:42:21.578Z,951.03
2023-05-12T01:42:32.595Z,951.03
2023-05-12T01:42:43.588Z,951.03
2023-05-12T01:42:54.577Z,951.03
2023-05-12T01:43:05.576Z,951.02
2023-05-12T01:43:16.567Z,951.02
2023-05-12T01:43:27.559Z,951.03
2023-05-12T01:43:38.641Z,951.03
2023-05-12T01:43:50.628Z,951.02
2023-05-12T01:44:02.582Z,951.03
2023-05-12T01:44:13.587Z,951.03
2023-05-12T01:44:24.585Z,951.03
2023-05-12T01:44:35.583Z,951.04
2023-05-12T01:44:46.570Z,951.04
2023-05-12T01:44:57.571Z,951.04
2023-05-12T01:45:08.604Z,951.05
2023-05-12T01:45:19.601Z,951.05
2023-05-12T01:45:30.598Z,951.05
2023-05-12T01:45:41.578Z,951.06
2023-05-12T01:45:52.577Z,951.06
2023-05-12T01:46:03.623Z,951.06
2023-05-12T01:46:15.625Z,951.06
2023-05-12T01:46:27.694Z,951.06
2023-05-12T01:46:38.631Z,951.06
2023-05-12T01:46:50.626Z,951.06
2023-05-12T01:47:02.595Z,951.06
2023-05-12T01:47:13.609Z,951.06
2023-05-12T01:47:24.635Z,951.06
2023-05-12T01:47:36.613Z,951.06
2023-05-12T01:47:48.629Z,951.06
2023-05-12T01:47:59.710Z,951.06
2023-05-12T01:48:11.640Z,951.06
2023-05-12T01:48:23.599Z,951.06
2023-05-12T01:48:34.595Z,951.06
2023-05-12T01:48:45.574Z,951.06
2023-05-12T01:48:56.579Z,951.06
2023-05-12T01:49:07.606Z,951.06
2023-05-12T01:49:18.566Z,951.06
2023-05-12T01:49:29.592Z,951.06
2023-05-12T01:49:40.590Z,951.07
2023-05-12T01:49:52.593Z,951.07
2023-05-12T01:50:03.584Z,951.08
2023-05-12T01:50:14.575Z,951.08
2023-05-12T01:50:25.582Z,951.09
2023-05-12T01:50:36.614Z,951.10
2023-05-12T01:50:48.586Z,951.11
2023-05-12T01:50:59.586Z,951.11
2023-05-12T01:51:10.598Z,951.11
2023-05-12T01:51:21.596Z,951.12
2023-05-12T01:51:32.595Z,951.13
2023-05-12T01:51:43.599Z,951.13
2023-05-12T01:51:54.587Z,951.13
2023-05-12T01:52:05.588Z,951.14
2023-05-12T01:52:16.564Z,951.14
2023-05-12T01:52:28.579Z,951.14
2023-05-12T01:52:39.574Z,951.13
2023-05-12T01:52:50.573Z,951.13
2023-05-12T01:53:01.570Z,951.13
2023-05-12T01:53:12.615Z,951.12
2023-05-12T01:53:23.645Z,951.12
2023-05-12T01:53:35.612Z,951.12
2023-05-12T01:53:46.614Z,951.11
2023-05-12T01:53:57.602Z,951.11
2023-05-12T01:54:08.602Z,951.10
2023-05-12T01:54:19.606Z,951.10
2023-05-12T01:54:30.600Z,951.09
2023-05-12T01:54:41.592Z,951.09
2023-05-12T01:54:52.596Z,951.09
2023-05-12T01:55:03.597Z,951.09
2023-05-12T01:55:14.610Z,951.09
2023-05-12T01:55:25.606Z,951.09
2023-05-12T01:55:37.656Z,951.08
2023-05-12T01:55:48.611Z,951.09
2023-05-12T01:55:59.608Z,951.09
2023-05-12T01:56:10.612Z,951.09
2023-05-12T01:56:21.609Z,951.08
2023-05-12T01:56:33.581Z,951.08
2023-05-12T01:56:44.597Z,951.08
2023-05-12T01:56:56.579Z,951.08
2023-05-12T01:57:07.581Z,951.08
2023-05-12T01:57:18.599Z,951.09
2023-05-12T01:57:29.604Z,951.09
2023-05-12T01:57:40.597Z,951.09
2023-05-12T01:57:51.609Z,951.09
2023-05-12T01:58:03.580Z,951.10
2023-05-12T01:58:14.574Z,951.10
2023-05-12T01:58:26.582Z,951.11
2023-05-12T01:58:38.632Z,951.12
2023-05-12T01:58:50.629Z,951.12
2023-05-12T01:59:02.607Z,951.13
2023-05-12T01:59:14.618Z,951.14
2023-05-12T01:59:25.621Z,951.14
2023-05-12T01:59:36.629Z,951.15
2023-05-12T01:59:48.602Z,951.16
2023-05-12T01:59:59.592Z,951.17
2023-05-12T02:00:10.597Z,951.18
2023-05-12T02:00:21.817Z,951.19
2023-05-12T02:00:32.606Z,951.19
2023-05-12T02:00:43.626Z,951.20
2023-05-12T02:00:54.603Z,951.20
2023-05-12T02:01:05.598Z,951.20
2023-05-12T02:01:17.593Z,951.20
2023-05-12T02:01:28.695Z,951.20
2023-05-12T02:01:39.638Z,951.20
2023-05-12T02:01:51.702Z,951.20
2023-05-12T02:02:03.700Z,951.20
2023-05-12T02:02:14.660Z,951.20
2023-05-12T02:02:25.637Z,951.20
2023-05-12T02:02:36.633Z,951.20
2023-05-12T02:02:47.723Z,951.20
2023-05-12T02:02:58.677Z,951.20
2023-05-12T02:03:10.648Z,951.20
2023-05-12T02:03:21.773Z,951.20
2023-05-12T02:03:33.616Z,951.20
2023-05-12T02:03:44.617Z,951.20
2023-05-12T02:03:55.606Z,951.20
2023-05-12T02:04:06.771Z,951.20
2023-05-12T02:04:17.647Z,951.20
2023-05-12T02:04:28.577Z,951.20
2023-05-12T02:04:39.774Z,951.21
2023-05-12T02:04:50.562Z,951.21
2023-05-12T02:05:01.572Z,951.21
2023-05-12T02:05:12.586Z,951.20
2023-05-12T02:05:23.616Z,951.20
2023-05-12T02:05:35.581Z,951.20
2023-05-12T02:05:47.577Z,951.20
2023-05-12T02:05:58.573Z,951.20
2023-05-12T02:06:09.570Z,951.20
2023-05-12T02:06:20.570Z,951.20
2023-05-12T02:06:31.570Z,951.20
2023-05-12T02:06:42.575Z,951.20
2023-05-12T02:06:53.579Z,951.20
2023-05-12T02:07:04.591Z,951.20
2023-05-12T02:07:15.597Z,951.20
2023-05-12T02:07:26.593Z,951.20
2023-05-12T02:07:37.654Z,951.20
2023-05-12T02:07:49.613Z,951.20
2023-05-12T02:08:01.581Z,951.20
2023-05-12T02:08:12.581Z,951.20
2023-05-12T02:08:23.567Z,951.20
2023-05-12T02:08:34.586Z,951.20
2023-05-12T02:08:45.576Z,951.20
2023-05-12T02:08:56.575Z,951.20
2023-05-12T02:09:07.584Z,951.20
2023-05-12T02:09:18.581Z,951.19
2023-05-12T02:09:29.576Z,951.19
2023-05-12T02:09:40.565Z,951.19
2023-05-12T02:09:51.562Z,951.19
2023-05-12T02:10:02.546Z,951.19
2023-05-12T02:10:13.627Z,951.19
2023-05-12T02:10:25.578Z,951.19
2023-05-12T02:10:36.595Z,951.19
2023-05-12T02:10:47.580Z,951.19
2023-05-12T02:10:58.578Z,951.19
2023-05-12T02:11:09.564Z,951.20
2023-05-12T02:11:20.549Z,951.20
2023-05-12T02:11:31.545Z,951.20
2023-05-12T02:11:42.552Z,951.20
2023-05-12T02:11:53.545Z,951.20
2023-05-12T02:12:04.568Z,951.20
2023-05-12T02:12:15.551Z,951.20
2023-05-12T02:12:26.651Z,951.20
2023-05-12T02:12:38.605Z,951.20
2023-05-12T02:12:49.613Z,951.20
2023-05-12T02:13:01.602Z,951.20
2023-05-12T02:13:12.594Z,951.20
2023-05-12T02:13:23.595Z,951.19
2023-05-12T02:13:34.585Z,951.19
2023-05-12T02:13:45.588Z,951.19
2023-05-12T02:13:56.601Z,951.18
2023-05-12T02:14:07.590Z,951.18
2023-05-12T02:14:18.587Z,951.18
2023-05-12T02:14:29.593Z,951.17
2023-05-12T02:14:40.578Z,951.17
2023-05-12T02:14:51.577Z,951.17
2023-05-12T02:15:02.581Z,951.17
2023-05-12T02:15:13.569Z,951.17
2023-05-12T02:15:24.587Z,951.17
2023-05-12T02:15:35.572Z,951.16
2023-05-12T02:15:46.579Z,951.16
2023-05-12T02:15:57.603Z,951.16
2023-05-12T02:16:08.566Z,951.15
2023-05-12T02:16:19.569Z,951.15
2023-05-12T02:16:30.614Z,951.15
2023-05-12T02:16:41.733Z,951.15
2023-05-12T02:16:53.585Z,951.14
2023-05-12T02:17:04.653Z,951.14
2023-05-12T02:17:15.582Z,951.14
2023-05-12T02:17:26.612Z,951.14
2023-05-12T02:17:38.614Z,951.14
2023-05-12T02:17:50.676Z,951.13
2023-05-12T02:18:02.622Z,951.13
2023-05-12T02:18:14.574Z,951.13
2023-05-12T02:18:25.589Z,951.13
2023-05-12T02:18:36.614Z,951.13
2023-05-12T02:18:48.607Z,951.13
2023-05-12T02:18:59.617Z,951.12
2023-05-12T02:19:11.633Z,951.12
2023-05-12T02:19:22.569Z,951.12
2023-05-12T02:19:33.560Z,951.13
2023-05-12T02:19:44.565Z,951.13